Flight Track Log - Related Links

Times and Time Zones

All times are in EDT time to prevent confusion due to time zone crossing. See the FLG4222 flight status page for this flight to view local times or setup timezone preferences in your user account.

Time Position Orientation Groundspeed Altitude Reporting Facility
EDT Latitude Longitude Course Direction KTS MPH feet Rate Location/Type
Thu 01:00:00 PM 42.2694 -76.1175 292° West 221 254 6,100  Level New York Center
Thu 01:01:31 PM 42.3064 -76.2536 290° West 257 296 9,400 1,804 Climbing Cleveland Center
Thu 01:02:33 PM 42.3319 -76.3539 289° West 278 320 10,700 1,355 Climbing Cleveland Center
Thu 01:03:35 PM 42.3617 -76.4639 290° West 313 360 12,200 1,597 Climbing Cleveland Center
Thu 01:04:00 PM 42.2305 -76.7337 289° West  Level Estimated
Thu 01:04:37 PM 42.3931 -76.5781 290° West 323 372 14,000  Level Cleveland Center
Thu 01:05:39 PM 42.4247 -76.6922 291° West 326 375 15,200 1,306 Climbing Cleveland Center
Thu 01:06:41 PM 42.4619 -76.8328 290° West 330 380 16,700 1,258 Climbing Cleveland Center
Thu 01:07:43 PM 42.4933 -76.9519 290° West 336 387 17,800 774 Climbing Cleveland Center
Thu 01:08:45 PM 42.5258 -77.0756 290° West 347 399 18,300 629 Climbing Cleveland Center
Thu 01:09:47 PM 42.5589 -77.2028 289° West 357 411 19,100 878 Climbing Cleveland Center
Thu 01:10:48 PM 42.5928 -77.3306 290° West 361 415 20,100 1,024 Climbing Cleveland Center
Thu 01:11:50 PM 42.6278 -77.4625 290° West 357 411 21,200 871 Climbing Cleveland Center
Thu 01:12:52 PM 42.6608 -77.5883 290° West 355 409 21,900 629 Climbing Cleveland Center
Thu 01:13:54 PM 42.6967 -77.7275 289° West 362 417 22,500 532 Climbing Cleveland Center
Thu 01:14:56 PM 42.7308 -77.8603 289° West 373 429 23,000 532 Climbing Cleveland Center
Thu 01:15:58 PM 42.7719 -78.0211 289° West 377 434 23,600 532 Climbing Cleveland Center
Thu 01:17:00 PM 42.8058 -78.1561 289° West 378 435 24,100 484 Climbing Cleveland Center
Thu 01:18:02 PM 42.8397 -78.2917 289° West 378 435 24,600 484 Climbing Cleveland Center
Thu 01:19:04 PM 42.8736 -78.4278 289° West 381 438 25,100 484 Climbing Cleveland Center
Thu 01:20:06 PM 42.9081 -78.5631 289° West 380 437 25,600 484 Climbing Cleveland Center
Thu 01:21:08 PM 42.9189 -78.7008 276° West 375 432 26,100 484 Climbing Cleveland Center
Thu 01:22:10 PM 42.9011 -78.8392 260° West 370 426 26,600 537 Climbing Cleveland Center
Thu 01:23:11 PM 42.8767 -79.0047 259° West 372 428 27,200 537 Climbing Cleveland Center
Thu 01:24:13 PM 42.8572 -79.1406 259° West 367 422 27,700 387 Climbing Cleveland Center
Thu 01:25:15 PM 42.8364 -79.2789 258° West 371 427 28,000 145 Climbing Cleveland Center
Thu 01:26:17 PM 42.8156 -79.4189 259° West 378 435 28,000  Level Cleveland Center
Thu 01:27:19 PM 42.7939 -79.5625 258° West 387 445 28,000  Level Cleveland Center
Thu 01:28:21 PM 42.7714 -79.7081 258° West 393 452 28,000  Level Cleveland Center
Thu 01:29:23 PM 42.7489 -79.8861 260° West 399 459 28,000  Level Cleveland Center
Thu 01:30:25 PM 42.7411 -80.0428 266° West 403 464 28,000  Level Cleveland Center
Thu 01:31:27 PM 42.7356 -80.1950 267° West 400 460 28,000  Level Cleveland Center
Thu 01:32:29 PM 42.7289 -80.3486 267° West 401 461 28,000  Level Cleveland Center
Thu 01:33:31 PM 42.7225 -80.5017 267° West 402 463 28,000 -97 Level Cleveland Center
Thu 01:34:33 PM 42.7161 -80.6544 267° West 403 464 27,800 -387 Descending Cleveland Center
Thu 01:35:35 PM 42.7086 -80.8169 266° West 425 489 27,200 -677 Descending Cleveland Center
Thu 01:36:37 PM 42.6967 -80.9728 264° West 417 480 26,400 -1,016 Descending Cleveland Center
Thu 01:37:39 PM 42.6767 -81.1425 261° West 391 450 25,100 -1,306 Descending Cleveland Center
Thu 01:38:41 PM 42.6597 -81.2892 261° West 391 450 23,700 -1,323 Descending Cleveland Center
Thu 01:40:00 PM 42.6331 -81.4612 258° West  Level FlightAware Approximate
Thu 01:40:45 PM 42.6283 -81.5614 258° West 349 402 21,000  Level Cleveland Center
Thu 01:41:47 PM 42.6122 -81.6883 260° West 341 392 19,800 -1,161 Descending Cleveland Center
Thu 01:42:49 PM 42.5986 -81.8100 261° West 338 389 18,600 -1,161 Descending Cleveland Center
Thu 01:43:51 PM 42.5792 -81.9603 260° West 338 389 17,400 -1,113 Descending Cleveland Center
Thu 01:44:53 PM 42.5644 -82.0836 261° West 333 383 16,300 -1,161 Descending Cleveland Center
Thu 01:45:55 PM 42.5489 -82.2069 260° West 333 383 15,000 -1,200 Descending Cleveland Center
Thu 01:46:08 PM 42.5458 -82.2400 263° West 327 376 14,800 -1,180 Descending Cleveland Center
Thu 01:46:56 PM 42.5347 -82.3406 262° West 324 373 13,800 -1,102 Descending Cleveland Center
Thu 01:46:57 PM 42.5350 -82.3272 88° East 327 376 13,900 -1,065 Climbing Cleveland Center
Thu 01:47:58 PM 42.5183 -82.4572 260° West 316 364 12,700 -1,065 Descending Cleveland Center
Thu 01:47:59 PM 42.5194 -82.4447 83° East 322 371 12,800 -656 Climbing Cleveland Center
Thu 01:49:02 PM 42.5056 -82.5511 260° West 300 345 12,000 -831 Descending Cleveland Center
Thu 01:49:04 PM 42.4975 -82.5736 244° Southwest 285 328 11,900 -1,065 Descending Cleveland Center
Thu 01:50:04 PM 42.4647 -82.6644 244° Southwest 280 322 10,900 -1,082 Descending Cleveland Center
Thu 01:50:05 PM 42.4633 -82.6708 254° West 278 320 10,800 -968 Descending Cleveland Center
Thu 01:51:06 PM 42.4328 -82.7533 243° Southwest 268 308 9,900 -1,366 Descending Cleveland Center
Thu 01:52:08 PM 42.4011 -82.8419 244° Southwest 264 304 8,000 -1,770 Descending Cleveland Center
Thu 01:53:08 PM 42.4358 -82.9358 297° West 256 295 6,300 -1,548 Descending Cleveland Center
Thu 01:53:10 PM 42.4322 -82.9292 126° Southeast 259 298 6,400 -295 Climbing Cleveland Center
Thu 01:54:09 PM 42.4744 -83.0089 306° West 226 260 6,000 -387 Descending Cleveland Center
Thu 01:54:12 PM 42.4692 -82.9981 123° Southeast 236 272 6,000  Level Cleveland Center
Thu 01:55:14 PM 42.5106 -83.0853 303° West 231 266 6,000  Level Cleveland Center
Thu 01:55:16 PM 42.5100 -83.0931 264° West 218 251 6,000  Level Cleveland Center
Thu 01:56:05 PM 42.4856 -83.1378 233° Southwest 174 200 6,000  Level Cleveland Center
Thu 01:56:16 PM 42.4794 -83.1397 193° South 195 224 6,000 -411 Level Cleveland Center
Thu 01:57:18 PM 42.4369 -83.1706 208° Southwest 177 204 5,500 -677 Descending Cleveland Center
Thu 01:58:20 PM 42.3958 -83.2008 209° Southwest 171 197 4,600 -871 Descending Cleveland Center
Thu 01:59:22 PM 42.3550 -83.2325 210° Southwest 169 194 3,700 -931 Descending Cleveland Center
Thu 02:00:16 PM 42.3147 -83.2639 210° Southwest 165 190 2,800 -857 Descending Cleveland Center
Thu 02:00:25 PM 42.3147 -83.2617 90° East 166 191 2,800 -764 Level Cleveland Center
Thu 02:01:11 PM 42.2792 -83.2900 211° Southwest 148 170 2,100 -774 Descending Cleveland Center
Thu 02:01:27 PM 42.2764 -83.2911 196° South 161 185 2,000 -806 Descending Cleveland Center
Thu 02:02:18 PM 42.2392 -83.3183 208° Southwest 139 160 1,200 -677 Descending Cleveland Center
Thu 02:02:29 PM 42.2417 -83.3175 14° North 151 174 1,300 -164 Climbing Cleveland Center
Thu 02:03:31 PM 42.2022 -83.3464 208° Southwest 148 170 1,000 -290 Descending Cleveland Center
Thu 02:05:00 PM 42.2000 -83.3500 246° West  Level FlightAware Approximate
Thu 02:12:00 PM 42.2124 -83.3534 246° West  Level Estimated

Login

Don't have an account? Register now (free) for customized features, flight alerts, and more!